createdAt,value
2023-11-18T00:02:06.158Z,23.60
2023-11-18T00:04:32.451Z,19.58
2023-11-18T00:07:00.525Z,18.15
2023-11-18T00:11:53.092Z,17.15
2023-11-18T00:14:19.333Z,17.80
2023-11-18T00:16:45.680Z,21.20
2023-11-18T00:19:13.265Z,20.42
2023-11-18T00:21:39.566Z,20.52
2023-11-18T00:24:06.296Z,21.33
2023-11-18T00:26:32.671Z,23.65
2023-11-18T00:28:58.975Z,20.42
2023-11-18T00:31:26.503Z,20.33
2023-11-18T00:33:53.466Z,18.33
2023-11-18T00:36:19.792Z,20.52
2023-11-18T00:38:46.116Z,16.58
2023-11-18T00:41:13.466Z,20.20
2023-11-18T00:43:39.726Z,15.43
2023-11-18T00:46:06.439Z,17.63
2023-11-18T00:48:32.715Z,18.17
2023-11-18T00:50:59.255Z,17.23
2023-11-18T00:53:25.568Z,20.73
2023-11-18T00:55:51.791Z,14.95
2023-11-18T00:58:18.214Z,20.13
2023-11-18T01:00:44.559Z,15.30
2023-11-18T01:03:11.449Z,17.73
2023-11-18T01:05:38.308Z,17.98
2023-11-18T01:08:06.252Z,21.63
2023-11-18T01:10:32.657Z,22.02
2023-11-18T01:12:59.029Z,19.25
2023-11-18T01:15:25.624Z,16.05
2023-11-18T01:17:52.362Z,20.65
2023-11-18T01:20:23.089Z,18.83
2023-11-18T01:22:50.410Z,20.17
2023-11-18T01:25:20.005Z,21.58
2023-11-18T01:27:47.971Z,21.80
2023-11-18T01:30:15.072Z,14.65
2023-11-18T01:32:41.664Z,23.48
2023-11-18T01:35:09.352Z,17.27
2023-11-18T01:37:35.833Z,14.23
2023-11-18T01:40:06.481Z,19.65
2023-11-18T01:42:32.788Z,15.38
2023-11-18T01:45:00.607Z,15.10
2023-11-18T01:47:27.420Z,19.02
2023-11-18T01:49:53.888Z,17.10
2023-11-18T01:52:20.222Z,15.93
2023-11-18T01:54:46.511Z,16.20
2023-11-18T01:57:15.174Z,19.27
2023-11-18T01:59:41.569Z,15.60
2023-11-18T02:02:08.004Z,15.27
2023-11-18T02:04:34.655Z,13.45
2023-11-18T02:07:04.959Z,12.35
2023-11-18T02:09:31.682Z,12.60
2023-11-18T02:12:01.880Z,14.05
2023-11-18T02:14:29.571Z,10.32
2023-11-18T02:16:57.253Z,9.05
2023-11-18T02:19:25.721Z,9.60
2023-11-18T02:21:55.053Z,10.07
2023-11-18T02:24:37.799Z,9.85
2023-11-18T02:27:06.936Z,8.52
2023-11-18T02:29:37.394Z,7.53
2023-11-18T02:32:09.614Z,9.93
2023-11-18T02:34:39.283Z,11.23
2023-11-18T02:37:07.554Z,9.40
2023-11-18T02:39:39.694Z,5.97
2023-11-18T02:42:09.021Z,14.07
2023-11-18T02:44:38.708Z,11.57
2023-11-18T02:47:08.228Z,8.27
2023-11-18T02:49:37.638Z,11.20
2023-11-18T02:52:04.016Z,8.75
2023-11-18T02:54:30.301Z,8.40
2023-11-18T02:56:57.317Z,7.57
2023-11-18T02:59:23.634Z,10.80
2023-11-18T03:01:49.924Z,11.52
2023-11-18T03:04:17.033Z,9.98
2023-11-18T03:06:43.315Z,9.65
2023-11-18T03:09:11.444Z,13.63
2023-11-18T03:14:05.953Z,9.00
2023-11-18T03:16:32.409Z,11.25
2023-11-18T03:18:59.922Z,9.18
2023-11-18T03:21:27.485Z,13.88
2023-11-18T03:23:54.368Z,13.73
2023-11-18T03:26:20.661Z,11.60
2023-11-18T03:28:46.924Z,15.00
2023-11-18T03:31:13.489Z,14.70
2023-11-18T03:33:39.777Z,14.60
2023-11-18T03:36:06.386Z,14.27
2023-11-18T03:38:34.786Z,11.15
2023-11-18T03:41:01.139Z,13.93
2023-11-18T03:43:27.709Z,14.90
2023-11-18T03:45:57.685Z,14.77
2023-11-18T03:48:24.436Z,16.90
2023-11-18T03:50:51.069Z,15.85
2023-11-18T03:53:17.480Z,14.77
2023-11-18T03:55:43.852Z,17.50
2023-11-18T03:58:10.271Z,12.38
2023-11-18T04:00:36.929Z,11.25
2023-11-18T04:03:03.247Z,14.80
2023-11-18T04:05:30.185Z,18.17
2023-11-18T04:07:57.082Z,13.55
2023-11-18T04:10:23.642Z,13.55
2023-11-18T04:12:49.896Z,13.55
2023-11-18T04:15:19.104Z,15.27
2023-11-18T04:17:45.554Z,14.48
2023-11-18T04:20:12.452Z,14.80
2023-11-18T04:22:39.967Z,12.35
2023-11-18T04:25:07.625Z,14.48
2023-11-18T04:27:33.894Z,13.55
2023-11-18T04:30:00.260Z,14.45
2023-11-18T04:32:26.643Z,15.98
2023-11-18T04:34:52.988Z,16.20
2023-11-18T04:37:19.360Z,15.32
2023-11-18T04:39:45.656Z,24.50
2023-11-18T04:42:11.960Z,21.98
2023-11-18T04:44:39.545Z,22.77
2023-11-18T04:47:06.297Z,17.15
2023-11-18T04:49:32.631Z,20.80
2023-11-18T04:52:00.039Z,17.50
2023-11-18T04:54:26.372Z,20.90
2023-11-18T04:56:53.352Z,19.73
2023-11-18T04:59:19.707Z,24.65
2023-11-18T05:01:46.603Z,24.83
2023-11-18T05:04:13.043Z,26.67
2023-11-18T05:06:39.671Z,25.73
2023-11-18T05:09:08.752Z,22.85
2023-11-18T05:11:35.702Z,30.38
2023-11-18T05:14:02.911Z,20.75
2023-11-18T05:16:29.207Z,23.35
2023-11-18T05:18:55.525Z,22.38
2023-11-18T05:21:22.628Z,25.83
2023-11-18T05:23:48.861Z,27.52
2023-11-18T05:26:15.306Z,21.45
2023-11-18T05:28:41.666Z,23.08
2023-11-18T05:31:09.461Z,28.98
2023-11-18T05:33:36.323Z,23.90
2023-11-18T05:36:05.950Z,25.33
2023-11-18T05:38:35.691Z,25.23
2023-11-18T05:41:04.235Z,25.55
2023-11-18T05:43:37.755Z,20.40
2023-11-18T05:46:15.778Z,24.85
2023-11-18T05:48:45.178Z,20.63
2023-11-18T05:51:12.178Z,24.13
2023-11-18T05:53:42.905Z,28.90
2023-11-18T05:56:09.280Z,31.52
2023-11-18T05:58:35.678Z,26.50
2023-11-18T06:01:02.039Z,27.70
2023-11-18T06:03:28.435Z,27.75
2023-11-18T06:05:55.304Z,31.58
2023-11-18T06:08:23.932Z,31.73
2023-11-18T06:10:51.629Z,31.23
2023-11-18T06:13:18.984Z,29.42
2023-11-18T06:15:45.204Z,30.17
2023-11-18T06:18:11.508Z,25.13
2023-11-18T06:20:40.998Z,29.35
2023-11-18T06:23:07.815Z,29.92
2023-11-18T06:25:35.928Z,29.33
2023-11-18T06:30:28.846Z,21.40
2023-11-18T06:32:56.362Z,22.77
2023-11-18T06:35:22.720Z,29.38
2023-11-18T06:37:49.037Z,25.33
2023-11-18T06:40:20.534Z,30.95
2023-11-18T06:42:49.680Z,27.90
2023-11-18T06:45:16.130Z,28.63
2023-11-18T06:47:46.355Z,28.17
2023-11-18T06:50:15.401Z,26.42
2023-11-18T06:52:47.868Z,28.20
2023-11-18T06:55:16.336Z,28.42
2023-11-18T06:57:44.148Z,31.08
2023-11-18T07:00:10.699Z,31.08
2023-11-18T07:02:37.239Z,36.35
2023-11-18T07:05:03.856Z,34.88
2023-11-18T07:07:30.155Z,33.83
2023-11-18T07:09:56.979Z,42.45
2023-11-18T07:12:23.495Z,33.65
2023-11-18T07:14:49.826Z,33.13
2023-11-18T07:17:16.123Z,32.50
2023-11-18T07:19:44.425Z,32.75
2023-11-18T07:22:11.084Z,38.33
2023-11-18T07:24:38.240Z,33.58
2023-11-18T07:27:06.453Z,31.00
2023-11-18T07:29:33.540Z,47.45
2023-11-18T07:32:00.447Z,28.85
2023-11-18T07:34:26.913Z,36.45
2023-11-18T07:36:53.467Z,35.85
2023-11-18T07:39:25.841Z,38.70
2023-11-18T07:41:52.730Z,30.27
2023-11-18T07:44:19.047Z,30.55
2023-11-18T07:46:45.364Z,34.70
2023-11-18T07:49:12.593Z,42.47
2023-11-18T07:51:39.319Z,34.42
2023-11-18T07:54:05.694Z,39.00
2023-11-18T07:56:33.215Z,39.53
2023-11-18T07:58:59.498Z,30.88
2023-11-18T08:01:27.235Z,37.72
2023-11-18T08:03:54.189Z,33.05
2023-11-18T08:06:21.714Z,34.28
2023-11-18T08:08:49.173Z,37.47
2023-11-18T08:11:15.732Z,43.20
2023-11-18T08:13:42.507Z,34.80
2023-11-18T08:16:10.475Z,39.13
2023-11-18T08:18:38.243Z,39.13
2023-11-18T08:21:07.747Z,35.28
2023-11-18T08:23:34.192Z,28.60
2023-11-18T08:26:00.480Z,29.35
2023-11-18T08:28:26.863Z,32.30
2023-11-18T08:30:53.812Z,37.22
2023-11-18T08:33:20.988Z,39.20
2023-11-18T08:35:47.485Z,33.70
2023-11-18T08:38:14.228Z,40.53
2023-11-18T08:40:40.681Z,34.75
2023-11-18T08:43:08.863Z,36.47
2023-11-18T08:45:35.822Z,37.03
2023-11-18T08:48:03.025Z,37.30
2023-11-18T08:50:29.908Z,41.90
2023-11-18T08:53:00.198Z,36.50
2023-11-18T08:55:43.928Z,42.58
2023-11-18T08:58:21.544Z,33.97
2023-11-18T09:00:55.831Z,39.22
2023-11-18T09:03:28.511Z,36.42
2023-11-18T09:05:59.226Z,40.35
2023-11-18T09:08:33.073Z,32.55
2023-11-18T09:10:59.811Z,33.38
2023-11-18T09:13:30.695Z,35.13
2023-11-18T09:16:03.430Z,31.23
2023-11-18T09:18:34.653Z,28.98
2023-11-18T09:21:02.347Z,36.08
2023-11-18T09:23:30.169Z,34.03
2023-11-18T09:25:56.624Z,33.42
2023-11-18T09:28:26.119Z,37.75
2023-11-18T09:30:54.523Z,38.05
2023-11-18T09:33:30.244Z,30.88
2023-11-18T09:35:59.723Z,29.27
2023-11-18T09:38:28.757Z,38.10
2023-11-18T09:40:55.487Z,36.28
2023-11-18T09:43:23.118Z,39.13
2023-11-18T09:45:53.478Z,38.05
2023-11-18T09:48:26.091Z,29.13
2023-11-18T09:50:53.518Z,36.45
2023-11-18T09:53:20.567Z,33.80
2023-11-18T09:56:01.142Z,41.92
2023-11-18T09:58:34.909Z,35.15
2023-11-18T10:01:03.948Z,40.83
2023-11-18T10:03:30.502Z,35.22
2023-11-18T10:05:57.714Z,36.42
2023-11-18T10:08:27.223Z,44.50
2023-11-18T10:11:05.775Z,35.55
2023-11-18T10:13:35.139Z,40.30
2023-11-18T10:16:06.232Z,55.80
2023-11-18T10:18:36.156Z,41.83
2023-11-18T10:21:02.626Z,41.67
2023-11-18T10:23:29.261Z,41.22
2023-11-18T10:25:59.221Z,46.72
2023-11-18T10:28:28.249Z,51.08
2023-11-18T10:30:54.944Z,44.60
2023-11-18T10:33:22.243Z,48.65
2023-11-18T10:35:52.308Z,46.95
2023-11-18T10:38:19.247Z,52.25
2023-11-18T10:40:46.028Z,52.60
2023-11-18T10:43:12.392Z,59.53
2023-11-18T10:45:45.043Z,55.53
2023-11-18T10:48:14.032Z,63.95
2023-11-18T10:50:40.415Z,60.50
2023-11-18T10:53:12.304Z,46.53
2023-11-18T10:55:39.256Z,56.90
2023-11-18T10:58:05.566Z,48.50
2023-11-18T11:00:50.713Z,63.25
2023-11-18T11:03:17.346Z,59.38
2023-11-18T11:05:44.903Z,63.10
2023-11-18T11:08:14.863Z,53.67
2023-11-18T11:10:42.870Z,62.95
2023-11-18T11:15:48.747Z,46.75
2023-11-18T11:18:28.474Z,58.00
2023-11-18T11:21:04.732Z,54.78
2023-11-18T11:23:44.922Z,57.60
2023-11-18T11:26:20.292Z,62.92
2023-11-18T11:28:54.496Z,68.28
2023-11-18T11:31:37.742Z,63.78
2023-11-18T11:34:08.190Z,65.95
2023-11-18T11:36:47.638Z,59.33
2023-11-18T11:39:20.044Z,61.42
2023-11-18T11:41:58.384Z,48.50
2023-11-18T11:44:31.823Z,56.15
2023-11-18T11:47:01.193Z,56.47
2023-11-18T11:49:30.759Z,55.28
2023-11-18T11:52:21.504Z,55.30
2023-11-18T11:55:13.212Z,52.78
2023-11-18T11:57:43.035Z,48.88
2023-11-18T12:00:18.630Z,46.53
2023-11-18T12:02:53.142Z,48.33
2023-11-18T12:05:26.797Z,42.42
2023-11-18T12:07:56.277Z,45.42
2023-11-18T12:10:27.925Z,62.28
2023-11-18T12:13:20.774Z,61.15
2023-11-18T12:15:55.991Z,63.20
2023-11-18T12:18:23.204Z,58.95
2023-11-18T12:20:54.880Z,54.58
2023-11-18T12:23:24.170Z,51.92
2023-11-18T12:25:55.218Z,53.75
2023-11-18T12:28:27.661Z,53.15
2023-11-18T12:30:57.613Z,52.33
2023-11-18T12:33:24.849Z,50.25
2023-11-18T12:35:52.639Z,52.22
2023-11-18T12:38:40.681Z,49.63
2023-11-18T12:41:12.399Z,49.03
2023-11-18T12:43:38.696Z,50.78
2023-11-18T12:46:40.285Z,43.33
2023-11-18T12:49:07.284Z,46.67
2023-11-18T12:51:35.711Z,48.95
2023-11-18T12:54:03.573Z,51.13
2023-11-18T12:56:31.466Z,49.65
2023-11-18T12:58:57.917Z,53.15
2023-11-18T13:01:24.507Z,45.75
2023-11-18T13:03:51.089Z,54.72
2023-11-18T13:06:17.537Z,38.65
2023-11-18T13:08:43.839Z,43.53
2023-11-18T13:11:16.997Z,32.38
2023-11-18T13:13:44.339Z,30.05
2023-11-18T13:16:10.676Z,33.17
2023-11-18T13:18:45.312Z,24.58
2023-11-18T13:21:16.180Z,27.95
2023-11-18T13:23:43.118Z,28.20
2023-11-18T13:26:10.819Z,22.30
2023-11-18T13:28:37.162Z,24.60
2023-11-18T13:31:04.431Z,21.85
2023-11-18T13:33:30.767Z,22.02
2023-11-18T13:35:57.083Z,22.20
2023-11-18T13:38:23.417Z,15.65
2023-11-18T13:40:49.928Z,22.23
2023-11-18T13:43:16.377Z,18.58
2023-11-18T13:45:43.557Z,23.92
2023-11-18T13:48:13.336Z,19.83
2023-11-18T13:50:41.333Z,17.75
2023-11-18T13:55:33.958Z,21.67
2023-11-18T13:58:00.254Z,22.25
2023-11-18T14:00:31.205Z,24.33
2023-11-18T14:02:58.967Z,22.55
2023-11-18T14:05:26.151Z,27.98
2023-11-18T14:07:53.674Z,21.80
2023-11-18T14:10:20.549Z,17.65
2023-11-18T14:13:00.087Z,17.90
2023-11-18T14:15:26.400Z,20.58
2023-11-18T14:17:53.837Z,19.63
2023-11-18T14:20:23.176Z,22.42
2023-11-18T14:22:50.762Z,24.15
2023-11-18T14:25:18.619Z,20.23
2023-11-18T14:27:44.935Z,13.80
2023-11-18T14:30:11.619Z,17.10
2023-11-18T14:32:38.940Z,17.92
2023-11-18T14:35:10.617Z,15.65
2023-11-18T14:37:42.728Z,17.08
2023-11-18T14:40:14.537Z,15.02
2023-11-18T14:42:44.929Z,13.80
2023-11-18T14:45:13.249Z,12.77
2023-11-18T14:47:40.517Z,10.30
2023-11-18T14:50:16.296Z,12.45
2023-11-18T14:52:43.397Z,16.85
2023-11-18T14:55:13.482Z,13.18
2023-11-18T14:57:42.408Z,7.97
2023-11-18T15:00:10.508Z,12.60
2023-11-18T15:02:36.801Z,8.05
2023-11-18T15:05:07.528Z,8.38
2023-11-18T15:07:33.829Z,12.45
2023-11-18T15:10:00.295Z,9.73
2023-11-18T15:12:26.610Z,11.48
2023-11-18T15:14:52.897Z,11.73
2023-11-18T15:17:19.187Z,12.02
2023-11-18T15:19:45.434Z,10.25
2023-11-18T15:22:11.709Z,12.50
2023-11-18T15:24:37.995Z,6.15
2023-11-18T15:27:04.820Z,11.85
2023-11-18T15:29:39.430Z,5.75
2023-11-18T15:32:05.858Z,7.82
2023-11-18T15:34:32.814Z,6.97
2023-11-18T15:37:01.772Z,6.50
2023-11-18T15:39:28.441Z,8.68
2023-11-18T15:41:55.044Z,7.97
2023-11-18T15:44:21.690Z,7.43
2023-11-18T15:46:48.674Z,8.82
2023-11-18T15:49:14.996Z,9.48
2023-11-18T15:51:41.343Z,6.60
2023-11-18T15:54:07.608Z,4.65
2023-11-18T15:56:35.162Z,11.02
2023-11-18T15:59:01.516Z,9.63
2023-11-18T16:01:27.884Z,10.38
2023-11-18T16:03:54.307Z,7.95
2023-11-18T16:06:21.292Z,6.60
2023-11-18T16:08:50.413Z,9.13
2023-11-18T16:11:17.448Z,4.28
2023-11-18T16:13:43.765Z,2.42
2023-11-18T16:16:10.100Z,2.65
2023-11-18T16:18:36.474Z,5.30
2023-11-18T16:21:04.542Z,7.40
2023-11-18T16:23:35.968Z,10.35
2023-11-18T16:26:02.579Z,5.22
2023-11-18T16:28:29.932Z,7.57
2023-11-18T16:31:00.738Z,7.20
2023-11-18T16:33:27.610Z,7.50
2023-11-18T16:35:54.246Z,6.75
2023-11-18T16:38:20.687Z,5.95
2023-11-18T16:40:47.022Z,3.33
2023-11-18T16:43:13.244Z,5.43
2023-11-18T16:45:41.181Z,8.75
2023-11-18T16:50:34.077Z,6.10
2023-11-18T16:53:00.967Z,7.97
2023-11-18T16:55:28.039Z,8.07
2023-11-18T16:57:57.684Z,7.85
2023-11-18T17:00:24.520Z,6.25
2023-11-18T17:02:56.982Z,7.32
2023-11-18T17:05:25.476Z,6.47
2023-11-18T17:07:51.898Z,9.40
2023-11-18T17:10:18.441Z,7.63
2023-11-18T17:12:46.197Z,5.20
2023-11-18T17:15:14.157Z,7.07
2023-11-18T17:17:41.309Z,4.80
2023-11-18T17:20:10.568Z,7.20
2023-11-18T17:22:39.952Z,6.40
2023-11-18T17:25:10.594Z,5.97
2023-11-18T17:27:37.329Z,6.75
2023-11-18T17:30:07.288Z,6.20
2023-11-18T17:32:33.826Z,7.45
2023-11-18T17:35:03.087Z,2.95
2023-11-18T17:37:29.878Z,7.20
2023-11-18T17:39:56.269Z,5.47
2023-11-18T17:42:22.524Z,7.45
2023-11-18T17:44:49.770Z,5.65
2023-11-18T17:47:16.803Z,6.82
2023-11-18T17:49:43.089Z,4.15
2023-11-18T17:52:09.593Z,10.48
2023-11-18T17:54:35.901Z,7.28
2023-11-18T17:57:02.203Z,7.85
2023-11-18T17:59:29.685Z,4.68
2023-11-18T18:01:58.304Z,8.65
2023-11-18T18:04:24.738Z,6.45
2023-11-18T18:06:51.022Z,6.13
2023-11-18T18:09:19.854Z,4.10
2023-11-18T18:11:46.672Z,3.70
2023-11-18T18:14:13.026Z,10.43
2023-11-18T18:16:39.279Z,3.80
2023-11-18T18:19:06.870Z,4.85
2023-11-18T18:21:33.335Z,2.53
2023-11-18T18:23:59.706Z,6.13
2023-11-18T18:26:26.013Z,3.40
2023-11-18T18:28:52.899Z,6.43
2023-11-18T18:31:20.016Z,4.68
2023-11-18T18:33:48.371Z,6.38
2023-11-18T18:36:14.633Z,3.28
2023-11-18T18:38:41.110Z,7.43
2023-11-18T18:41:07.400Z,6.50
2023-11-18T18:43:33.664Z,8.25
2023-11-18T18:46:00.022Z,4.22
2023-11-18T18:48:26.388Z,8.25
2023-11-18T18:50:52.714Z,6.85
2023-11-18T18:53:19.008Z,7.93
2023-11-18T18:55:45.393Z,5.72
2023-11-18T18:58:11.750Z,10.27
2023-11-18T19:00:38.002Z,8.10
2023-11-18T19:03:04.661Z,7.90
2023-11-18T19:05:31.200Z,6.80
2023-11-18T19:07:58.880Z,5.80
2023-11-18T19:10:29.212Z,5.18
2023-11-18T19:13:00.824Z,6.13
2023-11-18T19:15:27.369Z,6.45
2023-11-18T19:17:53.835Z,8.65
2023-11-18T19:20:22.399Z,7.70
2023-11-18T19:22:48.688Z,8.40
2023-11-18T19:25:16.641Z,7.82
2023-11-18T19:27:44.724Z,9.75
2023-11-18T19:30:13.292Z,7.32
2023-11-18T19:32:40.259Z,10.52
2023-11-18T19:35:06.889Z,9.38
2023-11-18T19:37:34.195Z,9.02
2023-11-18T19:40:00.869Z,4.55
2023-11-18T19:42:28.090Z,6.85
2023-11-18T19:44:54.592Z,11.45
2023-11-18T19:47:21.166Z,4.63
2023-11-18T19:49:48.170Z,6.57
2023-11-18T19:52:14.449Z,11.57
2023-11-18T19:54:40.778Z,4.72
2023-11-18T19:57:10.416Z,11.93
2023-11-18T19:59:36.711Z,10.13
2023-11-18T20:02:04.293Z,8.60
2023-11-18T20:04:34.316Z,8.27
2023-11-18T20:07:00.636Z,13.13
2023-11-18T20:09:27.076Z,7.10
2023-11-18T20:11:53.935Z,11.40
2023-11-18T20:14:21.071Z,4.97
2023-11-18T20:16:49.714Z,6.45
2023-11-18T20:19:16.583Z,12.20
2023-11-18T20:21:42.886Z,10.32
2023-11-18T20:24:12.099Z,15.38
2023-11-18T20:26:38.477Z,10.85
2023-11-18T20:29:04.963Z,14.82
2023-11-18T20:31:31.402Z,7.00
2023-11-18T20:33:57.731Z,16.33
2023-11-18T20:36:23.953Z,8.15
2023-11-18T20:38:50.220Z,12.68
2023-11-18T20:41:18.597Z,13.90
2023-11-18T20:43:47.684Z,12.95
2023-11-18T20:46:14.830Z,15.63
2023-11-18T20:48:41.363Z,14.15
2023-11-18T20:51:09.227Z,8.70
2023-11-18T20:56:03.033Z,14.18
2023-11-18T20:58:29.777Z,14.38
2023-11-18T21:00:56.550Z,15.65
2023-11-18T21:03:23.299Z,13.68
2023-11-18T21:05:50.086Z,13.20
2023-11-18T21:08:19.270Z,12.85
2023-11-18T21:10:45.569Z,9.15
2023-11-18T21:13:11.964Z,10.52
2023-11-18T21:15:40.673Z,15.85
2023-11-18T21:18:13.351Z,9.43
2023-11-18T21:20:39.694Z,16.63
2023-11-18T21:23:06.025Z,16.92
2023-11-18T21:25:32.307Z,13.90
2023-11-18T21:28:04.239Z,10.05
2023-11-18T21:30:31.539Z,15.73
2023-11-18T21:33:00.428Z,15.63
2023-11-18T21:35:26.762Z,15.77
2023-11-18T21:37:53.079Z,22.10
2023-11-18T21:40:20.399Z,11.57
2023-11-18T21:42:46.816Z,13.10
2023-11-18T21:45:13.621Z,8.73
2023-11-18T21:47:40.297Z,13.70
2023-11-18T21:50:07.085Z,10.77
2023-11-18T21:52:33.446Z,18.95
2023-11-18T21:54:59.683Z,16.13
2023-11-18T21:57:26.040Z,15.60
2023-11-18T21:59:53.408Z,15.63
2023-11-18T22:02:19.863Z,16.83
2023-11-18T22:04:46.280Z,12.70
2023-11-18T22:07:12.890Z,12.85
2023-11-18T22:09:43.662Z,12.23
2023-11-18T22:12:09.929Z,15.02
2023-11-18T22:14:36.603Z,9.60
2023-11-18T22:17:03.003Z,9.85
2023-11-18T22:19:29.301Z,17.80
2023-11-18T22:21:56.993Z,6.80
2023-11-18T22:24:23.629Z,14.73
2023-11-18T22:26:53.504Z,13.50
2023-11-18T22:29:21.931Z,13.38
2023-11-18T22:31:48.573Z,10.80
2023-11-18T22:34:15.141Z,13.73
2023-11-18T22:36:42.948Z,18.25
2023-11-18T22:39:12.233Z,16.73
2023-11-18T22:41:39.973Z,9.40
2023-11-18T22:44:08.161Z,17.85
2023-11-18T22:46:35.246Z,16.30
2023-11-18T22:49:01.508Z,16.85
2023-11-18T22:51:28.553Z,12.23
2023-11-18T22:53:55.725Z,10.27
2023-11-18T22:56:22.363Z,7.60
2023-11-18T22:58:50.808Z,10.20
2023-11-18T23:01:21.134Z,13.68
2023-11-18T23:03:47.808Z,8.93
2023-11-18T23:06:20.725Z,15.02
2023-11-18T23:08:50.256Z,12.93
2023-11-18T23:11:17.442Z,14.38
2023-11-18T23:13:44.028Z,8.27
2023-11-18T23:16:12.747Z,9.55
2023-11-18T23:18:41.689Z,11.30
2023-11-18T23:21:11.770Z,12.45
2023-11-18T23:23:38.227Z,6.05
2023-11-18T23:26:07.595Z,13.68
2023-11-18T23:28:34.226Z,10.52
2023-11-18T23:31:02.460Z,14.50
2023-11-18T23:33:29.331Z,11.35
2023-11-18T23:35:55.564Z,11.90
2023-11-18T23:38:22.469Z,11.00
2023-11-18T23:40:49.008Z,11.52
2023-11-18T23:43:15.341Z,11.52
2023-11-18T23:45:42.380Z,13.07
2023-11-18T23:48:10.930Z,14.88
2023-11-18T23:50:37.202Z,12.77
2023-11-18T23:53:03.811Z,14.00
2023-11-18T23:55:31.822Z,11.82
2023-11-18T23:57:58.232Z,13.40
